sensor_id;sensor_type;location;lat;lon;timestamp;pressure;altitude;pressure_sealevel;temperature;humidity
61292;BME280;47165;42.664;23.368;2022-09-25T00:00:47;95368.88;;;10.65;58.39
61292;BME280;47165;42.664;23.368;2022-09-25T00:03:14;95365.81;;;10.75;58.04
61292;BME280;47165;42.664;23.368;2022-09-25T00:05:42;95364.72;;;10.79;57.69
61292;BME280;47165;42.664;23.368;2022-09-25T00:08:08;95366.09;;;10.86;57.46
61292;BME280;47165;42.664;23.368;2022-09-25T00:10:39;95363.97;;;10.93;57.12
61292;BME280;47165;42.664;23.368;2022-09-25T00:13:05;95364.75;;;10.95;56.91
61292;BME280;47165;42.664;23.368;2022-09-25T00:15:30;95365.44;;;10.98;57.02
61292;BME280;47165;42.664;23.368;2022-09-25T00:17:56;95361.31;;;10.94;56.81
61292;BME280;47165;42.664;23.368;2022-09-25T00:20:21;95365.75;;;10.92;56.36
61292;BME280;47165;42.664;23.368;2022-09-25T00:22:49;95360.72;;;10.89;56.63
61292;BME280;47165;42.664;23.368;2022-09-25T00:25:15;95362.38;;;10.90;56.56
61292;BME280;47165;42.664;23.368;2022-09-25T00:27:42;95360.59;;;10.91;56.58
61292;BME280;47165;42.664;23.368;2022-09-25T00:30:09;95361.56;;;10.90;56.68
61292;BME280;47165;42.664;23.368;2022-09-25T00:32:35;95351.94;;;10.90;56.63
61292;BME280;47165;42.664;23.368;2022-09-25T00:35:01;95353.97;;;10.85;56.35
61292;BME280;47165;42.664;23.368;2022-09-25T00:37:27;95355.06;;;10.63;58.05
61292;BME280;47165;42.664;23.368;2022-09-25T00:39:54;95355.56;;;10.54;58.35
61292;BME280;47165;42.664;23.368;2022-09-25T00:42:20;95350.84;;;10.61;57.52
61292;BME280;47165;42.664;23.368;2022-09-25T00:44:53;95346.47;;;10.61;57.35
61292;BME280;47165;42.664;23.368;2022-09-25T00:47:34;95339.41;;;10.63;57.34
61292;BME280;47165;42.664;23.368;2022-09-25T00:50:14;95344.09;;;10.57;58.34
61292;BME280;47165;42.664;23.368;2022-09-25T00:52:42;95345.31;;;10.50;59.06
61292;BME280;47165;42.664;23.368;2022-09-25T00:55:08;95341.56;;;10.55;58.20
61292;BME280;47165;42.664;23.368;2022-09-25T00:57:35;95338.25;;;10.52;57.19
61292;BME280;47165;42.664;23.368;2022-09-25T01:00:10;95351.41;;;10.50;57.59
61292;BME280;47165;42.664;23.368;2022-09-25T01:02:40;95351.41;;;10.50;57.82
61292;BME280;47165;42.664;23.368;2022-09-25T01:05:10;95346.25;;;10.49;58.04
61292;BME280;47165;42.664;23.368;2022-09-25T01:07:38;95341.88;;;10.49;57.99
61292;BME280;47165;42.664;23.368;2022-09-25T01:10:06;95339.31;;;10.47;57.52
61292;BME280;47165;42.664;23.368;2022-09-25T01:12:38;95333.59;;;10.41;57.13
61292;BME280;47165;42.664;23.368;2022-09-25T01:15:06;95326.91;;;10.35;57.25
61292;BME280;47165;42.664;23.368;2022-09-25T01:31:05;95330.78;;;9.92;59.78
61292;BME280;47165;42.664;23.368;2022-09-25T01:33:42;95333.16;;;9.96;59.13
61292;BME280;47165;42.664;23.368;2022-09-25T01:36:28;95330.50;;;9.98;58.43
61292;BME280;47165;42.664;23.368;2022-09-25T01:39:27;95339.25;;;9.97;58.16
61292;BME280;47165;42.664;23.368;2022-09-25T01:42:02;95341.97;;;9.76;59.50
61292;BME280;47165;42.664;23.368;2022-09-25T01:44:48;95336.47;;;9.82;59.47
61292;BME280;47165;42.664;23.368;2022-09-25T01:47:20;95341.38;;;9.89;59.94
61292;BME280;47165;42.664;23.368;2022-09-25T01:49:52;95348.44;;;9.86;59.15
61292;BME280;47165;42.664;23.368;2022-09-25T01:52:24;95337.25;;;9.84;59.53
61292;BME280;47165;42.664;23.368;2022-09-25T01:54:54;95344.13;;;9.85;59.48
61292;BME280;47165;42.664;23.368;2022-09-25T01:57:29;95343.22;;;9.86;59.45
61292;BME280;47165;42.664;23.368;2022-09-25T02:00:05;95346.72;;;9.85;59.12
61292;BME280;47165;42.664;23.368;2022-09-25T02:02:39;95345.06;;;9.84;59.83
61292;BME280;47165;42.664;23.368;2022-09-25T02:05:13;95339.53;;;9.91;59.21
61292;BME280;47165;42.664;23.368;2022-09-25T02:07:43;95341.22;;;9.92;59.36
61292;BME280;47165;42.664;23.368;2022-09-25T02:10:22;95332.31;;;9.96;59.01
61292;BME280;47165;42.664;23.368;2022-09-25T02:12:54;95328.13;;;9.93;59.19
61292;BME280;47165;42.664;23.368;2022-09-25T02:15:25;95324.50;;;9.96;58.75
61292;BME280;47165;42.664;23.368;2022-09-25T02:17:58;95326.34;;;9.94;58.71
61292;BME280;47165;42.664;23.368;2022-09-25T02:20:45;95329.19;;;9.89;58.87
61292;BME280;47165;42.664;23.368;2022-09-25T02:25:59;95339.28;;;9.78;59.41
61292;BME280;47165;42.664;23.368;2022-09-25T02:28:27;95334.84;;;9.80;59.10
61292;BME280;47165;42.664;23.368;2022-09-25T02:30:55;95340.63;;;9.86;58.80
61292;BME280;47165;42.664;23.368;2022-09-25T02:33:23;95344.91;;;9.87;58.69
61292;BME280;47165;42.664;23.368;2022-09-25T02:35:48;95351.81;;;9.89;58.53
61292;BME280;47165;42.664;23.368;2022-09-25T02:38:14;95346.44;;;9.92;58.79
61292;BME280;47165;42.664;23.368;2022-09-25T02:40:52;95342.06;;;9.92;58.82
61292;BME280;47165;42.664;23.368;2022-09-25T02:43:38;95335.00;;;9.94;58.73
61292;BME280;47165;42.664;23.368;2022-09-25T02:49:04;95334.47;;;9.87;59.84
61292;BME280;47165;42.664;23.368;2022-09-25T02:51:42;95345.19;;;9.81;60.02
61292;BME280;47165;42.664;23.368;2022-09-25T02:54:38;95339.22;;;9.79;59.94
61292;BME280;47165;42.664;23.368;2022-09-25T02:57:35;95348.88;;;9.77;60.54
61292;BME280;47165;42.664;23.368;2022-09-25T03:00:03;95341.13;;;9.76;60.35
61292;BME280;47165;42.664;23.368;2022-09-25T03:02:32;95341.97;;;9.76;60.81
61292;BME280;47165;42.664;23.368;2022-09-25T03:04:59;95350.38;;;9.64;61.46
61292;BME280;47165;42.664;23.368;2022-09-25T03:07:25;95346.38;;;9.57;61.59
61292;BME280;47165;42.664;23.368;2022-09-25T03:09:53;95340.16;;;9.59;60.97
61292;BME280;47165;42.664;23.368;2022-09-25T03:12:20;95342.09;;;9.56;60.79
61292;BME280;47165;42.664;23.368;2022-09-25T03:14:46;95341.31;;;9.54;61.12
61292;BME280;47165;42.664;23.368;2022-09-25T03:17:12;95343.94;;;9.54;61.30
61292;BME280;47165;42.664;23.368;2022-09-25T03:19:39;95346.66;;;9.51;62.23
61292;BME280;47165;42.664;23.368;2022-09-25T03:22:04;95337.94;;;9.52;62.25
61292;BME280;47165;42.664;23.368;2022-09-25T03:24:30;95322.97;;;9.55;62.06
61292;BME280;47165;42.664;23.368;2022-09-25T03:26:55;95337.78;;;9.55;61.49
61292;BME280;47165;42.664;23.368;2022-09-25T03:29:21;95333.41;;;9.55;60.87
61292;BME280;47165;42.664;23.368;2022-09-25T03:31:47;95322.13;;;9.55;61.52
61292;BME280;47165;42.664;23.368;2022-09-25T03:34:14;95335.16;;;9.55;60.96
61292;BME280;47165;42.664;23.368;2022-09-25T03:36:40;95322.38;;;9.50;61.11
61292;BME280;47165;42.664;23.368;2022-09-25T03:39:06;95323.19;;;9.51;61.04
61292;BME280;47165;42.664;23.368;2022-09-25T03:41:35;95319.88;;;9.47;61.80
61292;BME280;47165;42.664;23.368;2022-09-25T03:44:01;95329.34;;;9.50;61.94
61292;BME280;47165;42.664;23.368;2022-09-25T03:46:30;95328.41;;;9.51;61.36
61292;BME280;47165;42.664;23.368;2022-09-25T03:48:57;95329.19;;;9.53;61.47
61292;BME280;47165;42.664;23.368;2022-09-25T03:51:24;95342.38;;;9.50;61.36
61292;BME280;47165;42.664;23.368;2022-09-25T03:53:50;95340.69;;;9.49;61.54
61292;BME280;47165;42.664;23.368;2022-09-25T03:56:18;95337.06;;;9.51;61.45
61292;BME280;47165;42.664;23.368;2022-09-25T03:58:45;95338.00;;;9.50;61.19
61292;BME280;47165;42.664;23.368;2022-09-25T04:01:12;95343.16;;;9.52;61.64
61292;BME280;47165;42.664;23.368;2022-09-25T04:03:38;95345.66;;;9.53;61.56
61292;BME280;47165;42.664;23.368;2022-09-25T04:06:05;95348.28;;;9.53;61.41
61292;BME280;47165;42.664;23.368;2022-09-25T04:08:33;95348.22;;;9.55;61.41
61292;BME280;47165;42.664;23.368;2022-09-25T04:10:59;95355.69;;;9.43;62.08
61292;BME280;47165;42.664;23.368;2022-09-25T04:13:26;95365.34;;;9.41;61.77
61292;BME280;47165;42.664;23.368;2022-09-25T04:15:54;95357.94;;;9.32;62.07
61292;BME280;47165;42.664;23.368;2022-09-25T04:18:21;95352.91;;;9.29;62.48
61292;BME280;47165;42.664;23.368;2022-09-25T04:20:46;95352.91;;;9.29;62.19
61292;BME280;47165;42.664;23.368;2022-09-25T04:23:12;95369.66;;;9.23;62.09
61292;BME280;47165;42.664;23.368;2022-09-25T04:25:37;95353.53;;;9.15;61.54
61292;BME280;47165;42.664;23.368;2022-09-25T04:28:03;95356.25;;;9.12;62.31
61292;BME280;47165;42.664;23.368;2022-09-25T04:30:29;95364.28;;;9.07;62.44
61292;BME280;47165;42.664;23.368;2022-09-25T04:32:55;95364.28;;;9.07;62.90
61292;BME280;47165;42.664;23.368;2022-09-25T04:35:40;95359.78;;;8.92;62.82
61292;BME280;47165;42.664;23.368;2022-09-25T04:38:05;95360.63;;;8.93;63.34
61292;BME280;47165;42.664;23.368;2022-09-25T04:40:31;95363.94;;;8.96;63.04
61292;BME280;47165;42.664;23.368;2022-09-25T04:43:01;95358.72;;;8.96;62.73
61292;BME280;47165;42.664;23.368;2022-09-25T04:45:28;95362.16;;;8.97;63.04
61292;BME280;47165;42.664;23.368;2022-09-25T04:47:54;95368.28;;;8.96;62.26
61292;BME280;47165;42.664;23.368;2022-09-25T04:50:24;95355.41;;;8.93;62.55
61292;BME280;47165;42.664;23.368;2022-09-25T04:52:49;95347.53;;;8.94;62.59
61292;BME280;47165;42.664;23.368;2022-09-25T04:55:16;95355.19;;;8.97;62.40
61292;BME280;47165;42.664;23.368;2022-09-25T04:57:41;95360.41;;;8.97;62.27
61292;BME280;47165;42.664;23.368;2022-09-25T05:00:08;95351.59;;;9.00;62.72
61292;BME280;47165;42.664;23.368;2022-09-25T05:02:34;95354.97;;;9.02;62.91
61292;BME280;47165;42.664;23.368;2022-09-25T05:04:59;95354.84;;;9.05;62.70
61292;BME280;47165;42.664;23.368;2022-09-25T05:07:24;95363.44;;;9.07;62.09
61292;BME280;47165;42.664;23.368;2022-09-25T05:09:50;95367.59;;;9.11;62.72
61292;BME280;47165;42.664;23.368;2022-09-25T05:12:15;95370.91;;;9.15;62.83
61292;BME280;47165;42.664;23.368;2022-09-25T05:14:41;95362.88;;;9.19;62.62
61292;BME280;47165;42.664;23.368;2022-09-25T05:17:07;95357.47;;;9.24;62.55
61292;BME280;47165;42.664;23.368;2022-09-25T05:19:35;95355.63;;;9.26;62.29
61292;BME280;47165;42.664;23.368;2022-09-25T05:22:01;95352.13;;;9.27;62.52
61292;BME280;47165;42.664;23.368;2022-09-25T05:24:26;95355.34;;;9.32;62.89
61292;BME280;47165;42.664;23.368;2022-09-25T05:26:51;95345.56;;;9.37;62.88
61292;BME280;47165;42.664;23.368;2022-09-25T05:29:17;95345.41;;;9.40;62.68
61292;BME280;47165;42.664;23.368;2022-09-25T05:31:42;95352.16;;;9.44;62.71
61292;BME280;47165;42.664;23.368;2022-09-25T05:34:12;95348.50;;;9.49;62.68
61292;BME280;47165;42.664;23.368;2022-09-25T05:36:37;95344.69;;;9.56;62.72
61292;BME280;47165;42.664;23.368;2022-09-25T05:39:02;95343.53;;;9.61;62.51
61292;BME280;47165;42.664;23.368;2022-09-25T05:41:28;95356.16;;;9.71;62.61
61292;BME280;47165;42.664;23.368;2022-09-25T05:43:55;95352.41;;;9.76;62.09
61292;BME280;47165;42.664;23.368;2022-09-25T05:46:21;95351.34;;;9.80;62.02
61292;BME280;47165;42.664;23.368;2022-09-25T05:48:47;95354.34;;;9.90;62.06
61292;BME280;47165;42.664;23.368;2022-09-25T05:51:12;95356.88;;;9.92;63.06
61292;BME280;47165;42.664;23.368;2022-09-25T05:53:37;95352.19;;;9.98;62.74
61292;BME280;47165;42.664;23.368;2022-09-25T05:56:04;95352.59;;;10.08;62.54
61292;BME280;47165;42.664;23.368;2022-09-25T05:58:31;95359.03;;;10.18;62.42
61292;BME280;47165;42.664;23.368;2022-09-25T06:01:02;95353.81;;;10.18;62.58
61292;BME280;47165;42.664;23.368;2022-09-25T06:03:29;95359.13;;;10.17;62.54
61292;BME280;47165;42.664;23.368;2022-09-25T06:05:59;95358.75;;;10.24;62.15
61292;BME280;47165;42.664;23.368;2022-09-25T06:08:25;95349.22;;;10.23;62.59
61292;BME280;47165;42.664;23.368;2022-09-25T06:10:54;95356.63;;;10.33;62.15
61292;BME280;47165;42.664;23.368;2022-09-25T06:13:21;95357.25;;;10.38;62.13
61292;BME280;47165;42.664;23.368;2022-09-25T06:15:46;95356.16;;;10.42;62.13
61292;BME280;47165;42.664;23.368;2022-09-25T06:18:17;95347.25;;;10.46;62.19
61292;BME280;47165;42.664;23.368;2022-09-25T06:20:43;95347.09;;;10.49;61.88
61292;BME280;47165;42.664;23.368;2022-09-25T06:23:08;95358.75;;;10.59;61.66
61292;BME280;47165;42.664;23.368;2022-09-25T06:25:34;95348.75;;;10.67;61.48
61292;BME280;47165;42.664;23.368;2022-09-25T06:28:03;95362.19;;;10.77;61.36
61292;BME280;47165;42.664;23.368;2022-09-25T06:30:31;95364.22;;;10.88;61.06
61292;BME280;47165;42.664;23.368;2022-09-25T06:33:02;95364.53;;;10.99;60.67
61292;BME280;47165;42.664;23.368;2022-09-25T06:35:28;95358.88;;;11.07;60.22
61292;BME280;47165;42.664;23.368;2022-09-25T06:37:58;95360.00;;;11.19;60.21
61292;BME280;47165;42.664;23.368;2022-09-25T06:40:28;95362.13;;;11.28;60.04
61292;BME280;47165;42.664;23.368;2022-09-25T06:42:59;95361.94;;;11.31;60.08
61292;BME280;47165;42.664;23.368;2022-09-25T06:45:26;95358.31;;;11.34;59.79
61292;BME280;47165;42.664;23.368;2022-09-25T06:47:52;95357.75;;;11.44;59.37
61292;BME280;47165;42.664;23.368;2022-09-25T06:50:23;95348.47;;;11.55;58.94
61292;BME280;47165;42.664;23.368;2022-09-25T06:52:49;95352.34;;;11.63;58.79
61292;BME280;47165;42.664;23.368;2022-09-25T06:55:15;95343.91;;;11.74;58.84
61292;BME280;47165;42.664;23.368;2022-09-25T06:57:40;95346.00;;;11.83;58.38
61292;BME280;47165;42.664;23.368;2022-09-25T07:00:07;95341.09;;;11.93;57.92
61292;BME280;47165;42.664;23.368;2022-09-25T07:02:32;95350.13;;;12.03;57.49
61292;BME280;47165;42.664;23.368;2022-09-25T07:05:16;95351.97;;;12.17;56.90
61292;BME280;47165;42.664;23.368;2022-09-25T07:07:43;95347.41;;;12.21;55.99
61292;BME280;47165;42.664;23.368;2022-09-25T07:10:09;95355.56;;;12.31;55.86
61292;BME280;47165;42.664;23.368;2022-09-25T07:12:35;95363.69;;;12.40;56.11
61292;BME280;47165;42.664;23.368;2022-09-25T07:15:00;95361.69;;;12.45;55.78
61292;BME280;47165;42.664;23.368;2022-09-25T07:17:26;95367.22;;;12.55;55.35
61292;BME280;47165;42.664;23.368;2022-09-25T07:19:51;95376.66;;;12.58;54.75
61292;BME280;47165;42.664;23.368;2022-09-25T07:22:17;95384.09;;;12.65;54.64
61292;BME280;47165;42.664;23.368;2022-09-25T07:24:42;95389.13;;;12.68;54.47
61292;BME280;47165;42.664;23.368;2022-09-25T07:27:08;95385.41;;;12.73;54.00
61292;BME280;47165;42.664;23.368;2022-09-25T07:29:33;95381.66;;;12.77;53.71
61292;BME280;47165;42.664;23.368;2022-09-25T07:32:00;95382.31;;;12.80;53.91
61292;BME280;47165;42.664;23.368;2022-09-25T07:34:26;95380.91;;;12.75;53.29
61292;BME280;47165;42.664;23.368;2022-09-25T07:36:51;95381.00;;;12.87;53.65
61292;BME280;47165;42.664;23.368;2022-09-25T07:39:18;95374.47;;;12.95;53.24
61292;BME280;47165;42.664;23.368;2022-09-25T07:41:44;95358.91;;;12.92;53.07
61292;BME280;47165;42.664;23.368;2022-09-25T07:44:09;95360.06;;;13.02;53.11
61292;BME280;47165;42.664;23.368;2022-09-25T07:46:34;95350.59;;;13.14;53.00
61292;BME280;47165;42.664;23.368;2022-09-25T07:49:01;95354.16;;;13.27;52.77
61292;BME280;47165;42.664;23.368;2022-09-25T07:51:26;95345.84;;;13.35;52.13
61292;BME280;47165;42.664;23.368;2022-09-25T07:53:52;95334.50;;;13.34;52.20
61292;BME280;47165;42.664;23.368;2022-09-25T07:56:17;95334.97;;;13.41;51.27
61292;BME280;47165;42.664;23.368;2022-09-25T07:58:43;95332.50;;;13.52;51.45
61292;BME280;47165;42.664;23.368;2022-09-25T08:01:11;95331.09;;;13.61;50.75
61292;BME280;47165;42.664;23.368;2022-09-25T08:03:36;95316.81;;;13.65;49.28
61292;BME280;47165;42.664;23.368;2022-09-25T08:06:10;95316.03;;;13.77;49.11
61292;BME280;47165;42.664;23.368;2022-09-25T08:08:38;95323.47;;;13.71;48.56
61292;BME280;47165;42.664;23.368;2022-09-25T08:11:06;95312.53;;;13.91;48.75
61292;BME280;47165;42.664;23.368;2022-09-25T08:13:32;95320.09;;;13.96;48.17
61292;BME280;47165;42.664;23.368;2022-09-25T08:16:01;95329.16;;;14.04;48.11
61292;BME280;47165;42.664;23.368;2022-09-25T08:18:27;95317.00;;;14.16;48.15
61292;BME280;47165;42.664;23.368;2022-09-25T08:20:52;95324.69;;;14.19;47.65
61292;BME280;47165;42.664;23.368;2022-09-25T08:23:18;95313.16;;;14.35;47.71
61292;BME280;47165;42.664;23.368;2022-09-25T08:25:47;95306.56;;;14.42;47.02
61292;BME280;47165;42.664;23.368;2022-09-25T08:28:13;95302.78;;;14.46;45.86
61292;BME280;47165;42.664;23.368;2022-09-25T08:30:38;95296.31;;;14.64;45.91
61292;BME280;47165;42.664;23.368;2022-09-25T08:33:09;95281.16;;;14.81;45.51
61292;BME280;47165;42.664;23.368;2022-09-25T08:35:36;95282.94;;;14.93;45.43
61292;BME280;47165;42.664;23.368;2022-09-25T08:38:01;95286.47;;;15.05;45.63
61292;BME280;47165;42.664;23.368;2022-09-25T08:40:29;95280.97;;;15.21;45.60
61292;BME280;47165;42.664;23.368;2022-09-25T08:42:56;95276.03;;;15.29;44.75
61292;BME280;47165;42.664;23.368;2022-09-25T08:45:26;95271.78;;;15.39;44.09
61292;BME280;47165;42.664;23.368;2022-09-25T08:51:17;95279.25;;;15.69;43.49
61292;BME280;47165;42.664;23.368;2022-09-25T08:53:43;95278.88;;;15.63;42.61
61292;BME280;47165;42.664;23.368;2022-09-25T08:56:13;95276.38;;;15.85;42.45
61292;BME280;47165;42.664;23.368;2022-09-25T08:58:42;95287.34;;;16.03;43.08
61292;BME280;47165;42.664;23.368;2022-09-25T09:01:12;95273.38;;;16.14;40.84
61292;BME280;47165;42.664;23.368;2022-09-25T09:04:18;95279.41;;;16.27;40.54
61292;BME280;47165;42.664;23.368;2022-09-25T09:06:48;95276.81;;;16.39;40.68
61292;BME280;47165;42.664;23.368;2022-09-25T09:09:20;95262.56;;;16.53;40.74
61292;BME280;47165;42.664;23.368;2022-09-25T09:12:02;95264.50;;;16.62;40.48
61292;BME280;47165;42.664;23.368;2022-09-25T09:14:39;95254.47;;;16.78;39.90
61292;BME280;47165;42.664;23.368;2022-09-25T09:17:14;95254.88;;;16.96;40.18
61292;BME280;47165;42.664;23.368;2022-09-25T09:19:48;95250.28;;;17.09;40.07
61292;BME280;47165;42.664;23.368;2022-09-25T09:22:28;95228.53;;;17.28;39.70
61292;BME280;47165;42.664;23.368;2022-09-25T09:24:59;95235.63;;;17.39;38.10
61292;BME280;47165;42.664;23.368;2022-09-25T09:27:52;95229.06;;;17.66;39.87
61292;BME280;47165;42.664;23.368;2022-09-25T09:30:33;95234.31;;;17.77;37.54
61292;BME280;47165;42.664;23.368;2022-09-25T09:42:15;95229.75;;;18.33;36.69
61292;BME280;47165;42.664;23.368;2022-09-25T09:52:44;95210.56;;;18.82;36.00
61292;BME280;47165;42.664;23.368;2022-09-25T09:58:01;95210.16;;;19.18;36.28
61292;BME280;47165;42.664;23.368;2022-09-25T10:00:29;95209.88;;;19.21;37.73
61292;BME280;47165;42.664;23.368;2022-09-25T10:03:03;95207.75;;;19.15;34.92
61292;BME280;47165;42.664;23.368;2022-09-25T10:05:33;95205.56;;;19.20;35.02
61292;BME280;47165;42.664;23.368;2022-09-25T10:08:00;95203.50;;;19.33;36.50
61292;BME280;47165;42.664;23.368;2022-09-25T10:10:38;95204.34;;;19.43;35.71
61292;BME280;47165;42.664;23.368;2022-09-25T10:13:16;95195.75;;;19.61;34.98
61292;BME280;47165;42.664;23.368;2022-09-25T10:16:11;95198.03;;;19.75;34.17
61292;BME280;47165;42.664;23.368;2022-09-25T10:18:58;95183.19;;;19.63;32.68
61292;BME280;47165;42.664;23.368;2022-09-25T10:21:48;95193.56;;;19.85;33.39
61292;BME280;47165;42.664;23.368;2022-09-25T10:24:54;95187.66;;;20.01;34.30
61292;BME280;47165;42.664;23.368;2022-09-25T10:27:30;95188.66;;;20.10;34.25
61292;BME280;47165;42.664;23.368;2022-09-25T10:38:04;95167.22;;;20.60;32.19
61292;BME280;47165;42.664;23.368;2022-09-25T10:40:34;95163.38;;;20.82;31.65
61292;BME280;47165;42.664;23.368;2022-09-25T10:45:40;95150.78;;;21.12;31.49
61292;BME280;47165;42.664;23.368;2022-09-25T10:48:38;95156.34;;;21.46;31.42
61292;BME280;47165;42.664;23.368;2022-09-25T10:51:22;95157.34;;;21.81;31.22
61292;BME280;47165;42.664;23.368;2022-09-25T10:54:09;95147.59;;;22.08;30.74
61292;BME280;47165;42.664;23.368;2022-09-25T10:56:35;95146.53;;;22.45;31.02
61292;BME280;47165;42.664;23.368;2022-09-25T10:59:09;95149.38;;;22.78;30.35
61292;BME280;47165;42.664;23.368;2022-09-25T11:01:41;95137.56;;;23.06;30.07
61292;BME280;47165;42.664;23.368;2022-09-25T11:04:16;95144.09;;;23.20;28.46
61292;BME280;47165;42.664;23.368;2022-09-25T11:06:45;95137.31;;;23.34;28.58
61292;BME280;47165;42.664;23.368;2022-09-25T11:09:14;95136.06;;;23.63;29.33
61292;BME280;47165;42.664;23.368;2022-09-25T11:11:41;95136.09;;;23.87;28.52
61292;BME280;47165;42.664;23.368;2022-09-25T11:14:25;95126.59;;;24.09;26.76
61292;BME280;47165;42.664;23.368;2022-09-25T11:16:57;95121.22;;;24.50;25.85
61292;BME280;47165;42.664;23.368;2022-09-25T11:19:31;95122.16;;;25.22;25.95
61292;BME280;47165;42.664;23.368;2022-09-25T11:27:27;95109.34;;;26.71;23.81
61292;BME280;47165;42.664;23.368;2022-09-25T11:30:15;95113.41;;;27.26;22.34
61292;BME280;47165;42.664;23.368;2022-09-25T11:33:05;95105.59;;;27.67;21.95
61292;BME280;47165;42.664;23.368;2022-09-25T11:36:02;95110.59;;;28.14;21.90
61292;BME280;47165;42.664;23.368;2022-09-25T11:38:47;95098.38;;;28.61;21.38
61292;BME280;47165;42.664;23.368;2022-09-25T11:41:45;95099.16;;;28.89;20.96
61292;BME280;47165;42.664;23.368;2022-09-25T11:44:27;95090.88;;;28.84;20.00
61292;BME280;47165;42.664;23.368;2022-09-25T11:47:00;95093.75;;;28.83;20.76
61292;BME280;47165;42.664;23.368;2022-09-25T11:49:34;95089.09;;;28.98;20.13
61292;BME280;47165;42.664;23.368;2022-09-25T11:54:44;95078.44;;;29.18;21.04
61292;BME280;47165;42.664;23.368;2022-09-25T11:57:18;95064.47;;;29.49;19.02
61292;BME280;47165;42.664;23.368;2022-09-25T12:08:00;95062.09;;;29.95;18.07
61292;BME280;47165;42.664;23.368;2022-09-25T12:10:57;95054.03;;;30.35;18.39
61292;BME280;47165;42.664;23.368;2022-09-25T12:13:58;95043.59;;;30.72;18.52
61292;BME280;47165;42.664;23.368;2022-09-25T12:16:38;95047.78;;;30.14;17.08
61292;BME280;47165;42.664;23.368;2022-09-25T12:33:33;95018.28;;;30.66;17.66
61292;BME280;47165;42.664;23.368;2022-09-25T12:39:26;95021.38;;;31.73;15.64
61292;BME280;47165;42.664;23.368;2022-09-25T12:44:58;95023.00;;;31.42;15.61
61292;BME280;47165;42.664;23.368;2022-09-25T12:47:56;95010.72;;;31.78;15.48
61292;BME280;47165;42.664;23.368;2022-09-25T12:50:25;95010.78;;;31.97;15.65
61292;BME280;47165;42.664;23.368;2022-09-25T12:53:15;95007.16;;;32.35;15.52
61292;BME280;47165;42.664;23.368;2022-09-25T12:55:48;94994.44;;;32.79;14.90
61292;BME280;47165;42.664;23.368;2022-09-25T12:58:35;94992.41;;;33.41;15.37
61292;BME280;47165;42.664;23.368;2022-09-25T13:07:18;94973.69;;;34.88;13.06
61292;BME280;47165;42.664;23.368;2022-09-25T13:09:47;94968.78;;;35.14;12.51
61292;BME280;47165;42.664;23.368;2022-09-25T13:12:23;94965.00;;;35.15;12.72
61292;BME280;47165;42.664;23.368;2022-09-25T13:17:18;94942.91;;;34.82;12.47
61292;BME280;47165;42.664;23.368;2022-09-25T13:19:44;94945.53;;;34.54;12.92
61292;BME280;47165;42.664;23.368;2022-09-25T13:22:24;94944.44;;;34.78;13.27
61292;BME280;47165;42.664;23.368;2022-09-25T13:24:57;94942.59;;;34.79;12.83
61292;BME280;47165;42.664;23.368;2022-09-25T13:27:38;94944.53;;;34.95;12.92
61292;BME280;47165;42.664;23.368;2022-09-25T13:30:05;94943.88;;;35.05;12.67
61292;BME280;47165;42.664;23.368;2022-09-25T13:32:32;94942.44;;;34.85;12.70
61292;BME280;47165;42.664;23.368;2022-09-25T13:35:05;94938.06;;;34.84;13.10
61292;BME280;47165;42.664;23.368;2022-09-25T13:37:35;94936.81;;;34.75;12.61
61292;BME280;47165;42.664;23.368;2022-09-25T13:40:14;94940.47;;;34.57;12.21
61292;BME280;47165;42.664;23.368;2022-09-25T13:48:46;94927.63;;;35.34;12.71
61292;BME280;47165;42.664;23.368;2022-09-25T13:54:01;94924.75;;;35.69;11.55
61292;BME280;47165;42.664;23.368;2022-09-25T14:01:45;94910.25;;;34.13;13.35
61292;BME280;47165;42.664;23.368;2022-09-25T14:06:41;94903.25;;;33.94;13.76
61292;BME280;47165;42.664;23.368;2022-09-25T14:09:11;94906.81;;;33.82;13.77
61292;BME280;47165;42.664;23.368;2022-09-25T14:11:39;94907.38;;;33.61;15.26
61292;BME280;47165;42.664;23.368;2022-09-25T14:14:15;94913.56;;;33.50;14.41
61292;BME280;47165;42.664;23.368;2022-09-25T14:16:47;94911.25;;;33.65;15.04
61292;BME280;47165;42.664;23.368;2022-09-25T14:19:18;94916.66;;;33.65;14.87
61292;BME280;47165;42.664;23.368;2022-09-25T14:21:45;94912.44;;;33.69;15.24
61292;BME280;47165;42.664;23.368;2022-09-25T14:24:24;94908.44;;;33.83;15.79
61292;BME280;47165;42.664;23.368;2022-09-25T14:26:53;94907.06;;;33.93;15.31
61292;BME280;47165;42.664;23.368;2022-09-25T14:29:30;94894.00;;;34.13;15.75
61292;BME280;47165;42.664;23.368;2022-09-25T14:32:04;94900.44;;;34.36;15.29
61292;BME280;47165;42.664;23.368;2022-09-25T14:34:51;94901.09;;;34.66;14.66
61292;BME280;47165;42.664;23.368;2022-09-25T14:37:34;94896.50;;;34.67;13.66
61292;BME280;47165;42.664;23.368;2022-09-25T14:40:09;94894.47;;;32.72;14.92
61292;BME280;47165;42.664;23.368;2022-09-25T14:43:06;94902.88;;;32.08;15.96
61292;BME280;47165;42.664;23.368;2022-09-25T14:45:53;94900.84;;;32.22;15.54
61292;BME280;47165;42.664;23.368;2022-09-25T14:48:26;94899.72;;;32.30;16.31
61292;BME280;47165;42.664;23.368;2022-09-25T14:50:59;94892.66;;;32.47;16.11
61292;BME280;47165;42.664;23.368;2022-09-25T14:53:29;94898.75;;;32.43;14.89
61292;BME280;47165;42.664;23.368;2022-09-25T14:55:56;94894.91;;;32.14;15.57
61292;BME280;47165;42.664;23.368;2022-09-25T14:58:26;94903.19;;;31.43;15.73
61292;BME280;47165;42.664;23.368;2022-09-25T15:00:56;94900.63;;;31.23;15.95
61292;BME280;47165;42.664;23.368;2022-09-25T15:03:28;94897.00;;;30.73;16.44
61292;BME280;47165;42.664;23.368;2022-09-25T15:05:58;94901.50;;;30.34;17.32
61292;BME280;47165;42.664;23.368;2022-09-25T15:08:38;94915.03;;;30.07;17.39